Portada
METAR-TAF:

METAR-TAF

Aeroports :

Litchfield Municipal Airport

Litchfield, Illinois, Estats Units d'Amèrica

latitud: 39-09-44N, longitud: 089-40-28W, altitud: 210 m

Observació

L'informe es va fer fa 27 minuts, a les 16:15 UTC
Vent 6 kt del Sud
Temperatura 20°C
Humitat 53%
Pressió 1017 hPa
Visibilitat: 16.1 km
Cel clar

METAR: K3LF 241615Z AUTO 18006KT 10SM CLR 20/10 A3003 RMK AO2 T02040100

Hora: 11:42 (16:42 UTC)


TAF: manca

Observacions i pronòstics meteorològics de més de 4000 aeroports (METAR i TAF).

Les estacions disponibles són els punts grocs i vermells al mapa.

Posi el ratolí al punt desitjat per veure el nom de l'estació.

Feu clic per veure les observacions i els pronòstics meteorològics.

Per canviar el mapa: feu clic els botons verds amb una creu de color negre per apropar; al botó verd amb un guió per allunyar la imatge; o en les fletxes verdes per a mapes adjacents.


METAR-TAF: